createdAt,value
2023-12-29T00:00:31.960Z,10.26
2023-12-29T00:02:59.127Z,10.29
2023-12-29T00:05:26.425Z,10.27
2023-12-29T00:07:53.486Z,10.26
2023-12-29T00:10:20.708Z,10.23
2023-12-29T00:12:47.834Z,10.22
2023-12-29T00:15:18.649Z,10.18
2023-12-29T00:17:48.410Z,10.19
2023-12-29T00:20:28.807Z,10.17
2023-12-29T00:23:00.915Z,10.16
2023-12-29T00:25:28.234Z,10.11
2023-12-29T00:27:55.368Z,10.07
2023-12-29T00:30:22.414Z,10.04
2023-12-29T00:32:52.079Z,10.05
2023-12-29T00:35:19.083Z,9.99
2023-12-29T00:37:46.232Z,9.99
2023-12-29T00:40:13.645Z,9.94
2023-12-29T00:42:40.714Z,9.94
2023-12-29T00:45:08.812Z,9.93
2023-12-29T00:47:36.105Z,9.95
2023-12-29T00:50:06.627Z,9.98
2023-12-29T00:52:33.599Z,10.01
2023-12-29T00:55:00.921Z,10.03
2023-12-29T00:57:28.039Z,10.06
2023-12-29T00:59:55.097Z,10.00
2023-12-29T01:02:22.200Z,9.99
2023-12-29T01:04:49.321Z,9.92
2023-12-29T01:07:19.018Z,9.87
2023-12-29T01:09:46.122Z,9.86
2023-12-29T01:12:13.180Z,9.91
2023-12-29T01:14:40.206Z,9.96
2023-12-29T01:17:07.215Z,9.99
2023-12-29T01:19:34.695Z,9.97
2023-12-29T01:22:01.802Z,9.90
2023-12-29T01:24:39.866Z,9.93
2023-12-29T01:27:10.108Z,9.91
2023-12-29T01:29:37.876Z,9.90
2023-12-29T01:32:06.263Z,9.87
2023-12-29T01:34:33.530Z,9.88
2023-12-29T01:37:00.921Z,9.87
2023-12-29T01:39:27.961Z,9.84
2023-12-29T01:41:59.143Z,9.88
2023-12-29T01:44:26.142Z,9.89
2023-12-29T01:46:56.142Z,9.93
2023-12-29T01:49:23.775Z,9.92
2023-12-29T01:51:54.394Z,9.92
2023-12-29T01:54:23.151Z,9.88
2023-12-29T01:56:53.147Z,9.92
2023-12-29T01:59:26.338Z,9.93
2023-12-29T02:01:55.847Z,9.93
2023-12-29T02:04:25.612Z,9.92
2023-12-29T02:06:53.134Z,9.91
2023-12-29T02:09:20.466Z,9.91
2023-12-29T02:11:48.433Z,9.91
2023-12-29T02:14:17.899Z,9.91
2023-12-29T02:17:00.003Z,9.90
2023-12-29T02:19:38.963Z,9.95
2023-12-29T02:22:06.920Z,9.92
2023-12-29T02:24:35.558Z,9.94
2023-12-29T02:27:19.472Z,9.95
2023-12-29T02:29:57.636Z,9.98
2023-12-29T02:32:27.726Z,9.94
2023-12-29T02:34:55.956Z,9.96
2023-12-29T02:37:25.820Z,9.91
2023-12-29T02:39:53.266Z,9.92
2023-12-29T02:42:23.484Z,9.86
2023-12-29T02:44:50.631Z,9.91
2023-12-29T02:47:17.786Z,9.87
2023-12-29T02:49:44.973Z,9.91
2023-12-29T02:52:12.283Z,9.90
2023-12-29T02:54:39.384Z,9.81
2023-12-29T02:57:06.403Z,9.83
2023-12-29T02:59:35.949Z,9.83
2023-12-29T03:02:03.052Z,9.84
2023-12-29T03:04:30.168Z,9.79
2023-12-29T03:06:57.341Z,9.80
2023-12-29T03:09:24.474Z,9.83
2023-12-29T03:11:51.473Z,9.85
2023-12-29T03:14:18.488Z,9.86
2023-12-29T03:16:48.009Z,9.87
2023-12-29T03:19:15.173Z,9.86
2023-12-29T03:21:42.301Z,9.91
2023-12-29T03:24:09.471Z,9.91
2023-12-29T03:26:36.624Z,9.93
2023-12-29T03:29:03.632Z,9.91
2023-12-29T03:31:30.733Z,9.94
2023-12-29T03:34:00.437Z,9.91
2023-12-29T03:36:27.549Z,9.92
2023-12-29T03:38:54.556Z,9.87
2023-12-29T03:41:21.557Z,9.87
2023-12-29T03:43:48.540Z,9.77
2023-12-29T03:46:18.911Z,9.83
2023-12-29T03:48:46.433Z,9.79
2023-12-29T03:51:17.242Z,9.79
2023-12-29T03:53:44.277Z,9.79
2023-12-29T03:56:16.829Z,9.81
2023-12-29T03:58:44.105Z,9.79
2023-12-29T04:01:11.745Z,9.83
2023-12-29T04:03:39.081Z,9.78
2023-12-29T04:06:06.884Z,9.78
2023-12-29T04:08:38.067Z,9.80
2023-12-29T04:11:06.265Z,9.78
2023-12-29T04:13:33.580Z,9.79
2023-12-29T04:16:01.039Z,9.81
2023-12-29T04:18:30.548Z,9.74
2023-12-29T04:20:57.757Z,9.78
2023-12-29T04:23:24.775Z,9.83
2023-12-29T04:25:54.391Z,9.80
2023-12-29T04:28:21.445Z,9.87
2023-12-29T04:30:48.575Z,9.85
2023-12-29T04:33:15.757Z,9.88
2023-12-29T04:35:42.727Z,9.84
2023-12-29T04:38:09.793Z,9.86
2023-12-29T04:40:37.710Z,9.92
2023-12-29T04:43:07.497Z,9.89
2023-12-29T04:45:34.623Z,9.90
2023-12-29T04:48:01.861Z,9.87
2023-12-29T04:50:29.071Z,9.89
2023-12-29T04:52:56.137Z,9.83
2023-12-29T04:55:23.182Z,9.85
2023-12-29T04:57:50.262Z,9.85
2023-12-29T05:00:20.276Z,9.84
2023-12-29T05:02:47.285Z,9.87
2023-12-29T05:05:14.485Z,9.81
2023-12-29T05:07:42.295Z,9.81
2023-12-29T05:10:10.069Z,9.80
2023-12-29T05:12:37.158Z,9.83
2023-12-29T05:15:05.537Z,9.76
2023-12-29T05:17:35.170Z,9.72
2023-12-29T05:20:02.707Z,9.71
2023-12-29T05:22:29.719Z,9.64
2023-12-29T05:24:56.718Z,9.65
2023-12-29T05:27:23.738Z,9.67
2023-12-29T05:29:50.845Z,9.73
2023-12-29T05:32:17.926Z,9.68
2023-12-29T05:34:47.558Z,9.64
2023-12-29T05:37:14.784Z,9.61
2023-12-29T05:39:43.045Z,9.55
2023-12-29T05:42:10.160Z,9.50
2023-12-29T05:44:37.481Z,9.46
2023-12-29T05:47:05.140Z,9.48
2023-12-29T05:49:32.300Z,9.42
2023-12-29T05:52:02.054Z,9.39
2023-12-29T05:54:29.079Z,9.43
2023-12-29T05:56:56.193Z,9.41
2023-12-29T05:59:23.260Z,9.37
2023-12-29T06:01:50.411Z,9.40
2023-12-29T06:04:17.603Z,9.36
2023-12-29T06:06:44.756Z,9.35
2023-12-29T06:09:14.432Z,9.38
2023-12-29T06:11:41.635Z,9.28
2023-12-29T06:14:08.680Z,9.32
2023-12-29T06:16:35.731Z,9.30
2023-12-29T06:19:04.878Z,9.31
2023-12-29T06:21:31.960Z,9.31
2023-12-29T06:23:58.993Z,9.31
2023-12-29T06:26:28.760Z,9.32
2023-12-29T06:28:55.773Z,9.37
2023-12-29T06:31:23.020Z,9.35
2023-12-29T06:33:50.230Z,9.30
2023-12-29T06:36:17.482Z,9.33
2023-12-29T06:38:44.533Z,9.29
2023-12-29T06:41:11.646Z,9.33
2023-12-29T06:43:41.339Z,9.29
2023-12-29T06:46:08.389Z,9.28
2023-12-29T06:48:35.748Z,9.25
2023-12-29T06:51:02.981Z,9.27
2023-12-29T06:53:30.002Z,9.31
2023-12-29T06:55:57.070Z,9.31
2023-12-29T06:58:24.175Z,9.26
2023-12-29T07:00:53.931Z,9.28
2023-12-29T07:03:21.054Z,9.27
2023-12-29T07:05:48.154Z,9.26
2023-12-29T07:08:15.204Z,9.35
2023-12-29T07:10:42.422Z,9.41
2023-12-29T07:13:09.882Z,9.41
2023-12-29T07:15:37.113Z,9.42
2023-12-29T07:18:07.457Z,9.45
2023-12-29T07:20:35.069Z,9.50
2023-12-29T07:23:02.219Z,9.51
2023-12-29T07:25:29.424Z,9.51
2023-12-29T07:27:56.536Z,9.57
2023-12-29T07:30:23.663Z,9.59
2023-12-29T07:32:50.828Z,9.64
2023-12-29T07:35:20.662Z,9.66
2023-12-29T07:37:48.187Z,9.69
2023-12-29T07:40:15.831Z,9.65
2023-12-29T07:42:43.477Z,9.64
2023-12-29T07:45:10.663Z,9.67
2023-12-29T07:47:38.030Z,9.70
2023-12-29T07:50:05.866Z,9.69
2023-12-29T07:52:35.579Z,9.69
2023-12-29T07:55:02.624Z,9.70
2023-12-29T07:57:29.718Z,9.76
2023-12-29T07:59:56.786Z,9.75
2023-12-29T08:02:26.040Z,9.78
2023-12-29T08:04:53.134Z,9.80
2023-12-29T08:07:20.257Z,9.82
2023-12-29T08:09:49.942Z,9.84
2023-12-29T08:12:16.956Z,9.88
2023-12-29T08:14:43.983Z,9.94
2023-12-29T08:17:11.537Z,9.94
2023-12-29T08:19:38.660Z,9.92
2023-12-29T08:22:06.415Z,9.93
2023-12-29T08:24:33.403Z,9.96
2023-12-29T08:27:04.088Z,9.93
2023-12-29T08:29:31.231Z,9.94
2023-12-29T08:31:58.244Z,9.96
2023-12-29T08:34:28.280Z,9.98
2023-12-29T08:36:55.671Z,10.01
2023-12-29T08:39:22.670Z,10.01
2023-12-29T08:41:49.808Z,10.03
2023-12-29T08:44:19.421Z,10.03
2023-12-29T08:46:46.405Z,10.07
2023-12-29T08:49:13.508Z,10.03
2023-12-29T08:51:40.546Z,10.12
2023-12-29T08:54:07.615Z,10.22
2023-12-29T08:56:34.685Z,10.19
2023-12-29T08:59:01.718Z,10.23
2023-12-29T09:01:31.391Z,10.27
2023-12-29T09:03:58.530Z,10.34
2023-12-29T09:06:25.611Z,10.40
2023-12-29T09:08:52.733Z,10.44
2023-12-29T09:11:19.750Z,10.45
2023-12-29T09:13:46.784Z,10.52
2023-12-29T09:16:14.406Z,10.59
2023-12-29T09:18:44.173Z,10.71
2023-12-29T09:21:11.274Z,10.72
2023-12-29T09:23:38.446Z,10.66
2023-12-29T09:26:05.927Z,10.66
2023-12-29T09:28:34.724Z,10.69
2023-12-29T09:31:01.836Z,10.70
2023-12-29T09:33:29.219Z,10.70
2023-12-29T09:35:58.846Z,10.77
2023-12-29T09:38:25.892Z,10.76
2023-12-29T09:40:54.338Z,10.73
2023-12-29T09:43:21.644Z,10.78
2023-12-29T09:45:53.234Z,10.82
2023-12-29T09:48:22.967Z,10.91
2023-12-29T09:50:52.322Z,11.01
2023-12-29T09:53:22.734Z,11.18
2023-12-29T09:55:50.184Z,11.13
2023-12-29T09:58:20.319Z,11.09
2023-12-29T10:00:50.431Z,11.16
2023-12-29T10:03:17.590Z,11.13
2023-12-29T10:05:51.811Z,11.18
2023-12-29T10:08:24.689Z,11.29
2023-12-29T10:10:54.404Z,11.37
2023-12-29T10:13:24.090Z,11.35
2023-12-29T10:16:05.291Z,11.34
2023-12-29T10:18:38.956Z,11.34
2023-12-29T10:21:22.405Z,11.50
2023-12-29T10:24:02.455Z,11.56
2023-12-29T10:26:29.680Z,11.67
2023-12-29T10:28:58.498Z,11.65
2023-12-29T10:31:25.925Z,11.77
2023-12-29T10:33:53.196Z,11.86
2023-12-29T10:36:20.287Z,11.90
2023-12-29T10:38:47.271Z,11.85
2023-12-29T10:41:18.227Z,11.86
2023-12-29T10:43:46.591Z,11.93
2023-12-29T10:46:13.592Z,12.04
2023-12-29T10:48:41.264Z,12.12
2023-12-29T10:51:08.430Z,12.15
2023-12-29T10:53:40.551Z,12.17
2023-12-29T10:56:20.866Z,12.24
2023-12-29T10:58:58.471Z,12.41
2023-12-29T11:01:25.744Z,12.37
2023-12-29T11:03:59.373Z,12.34
2023-12-29T11:06:27.726Z,12.42
2023-12-29T11:08:54.756Z,12.41
2023-12-29T11:11:24.782Z,12.49
2023-12-29T11:13:52.094Z,12.54
2023-12-29T11:16:22.933Z,12.63
2023-12-29T11:18:51.608Z,12.73
2023-12-29T11:21:22.832Z,12.69
2023-12-29T11:23:49.970Z,12.72
2023-12-29T11:26:17.352Z,12.73
2023-12-29T11:28:48.319Z,12.78
2023-12-29T11:31:17.320Z,12.82
2023-12-29T11:33:51.724Z,12.84
2023-12-29T11:36:31.381Z,12.95
2023-12-29T11:39:12.136Z,12.94
2023-12-29T11:41:45.673Z,13.04
2023-12-29T11:44:26.380Z,13.05
2023-12-29T11:46:53.432Z,12.92
2023-12-29T11:49:20.888Z,12.92
2023-12-29T11:51:48.838Z,12.68
2023-12-29T11:54:23.952Z,12.56
2023-12-29T11:56:51.817Z,12.48
2023-12-29T11:59:23.813Z,12.48
2023-12-29T12:01:52.424Z,12.64
2023-12-29T12:04:38.080Z,12.82
2023-12-29T12:07:05.766Z,12.83
2023-12-29T12:09:32.802Z,12.78
2023-12-29T12:11:59.909Z,12.71
2023-12-29T12:14:48.624Z,12.63
2023-12-29T12:17:32.651Z,12.61
2023-12-29T12:20:03.132Z,12.55
2023-12-29T12:22:35.511Z,12.64
2023-12-29T12:25:05.244Z,12.50
2023-12-29T12:27:32.934Z,12.48
2023-12-29T12:30:03.904Z,12.63
2023-12-29T12:32:31.603Z,12.53
2023-12-29T12:34:58.802Z,12.51
2023-12-29T12:37:28.230Z,12.45
2023-12-29T12:39:56.104Z,12.54
2023-12-29T12:42:24.509Z,12.55
2023-12-29T12:45:12.089Z,12.62
2023-12-29T12:47:45.876Z,12.56
2023-12-29T12:50:14.450Z,12.46
2023-12-29T12:52:41.914Z,12.57
2023-12-29T12:55:10.732Z,12.65
2023-12-29T12:57:38.928Z,12.75
2023-12-29T13:00:10.359Z,12.82
2023-12-29T13:02:38.798Z,12.84
2023-12-29T13:05:07.358Z,12.83
2023-12-29T13:07:35.381Z,12.76
2023-12-29T13:10:04.193Z,12.70
2023-12-29T13:12:31.286Z,12.77
2023-12-29T13:15:09.811Z,12.90
2023-12-29T13:17:36.852Z,12.93
2023-12-29T13:20:04.501Z,13.12
2023-12-29T13:22:31.705Z,13.10
2023-12-29T13:24:59.080Z,12.92
2023-12-29T13:27:26.184Z,12.84
2023-12-29T13:29:54.018Z,12.79
2023-12-29T13:32:27.029Z,12.79
2023-12-29T13:35:08.051Z,12.82
2023-12-29T13:37:43.569Z,12.81
2023-12-29T13:40:18.999Z,12.70
2023-12-29T13:42:52.187Z,12.74
2023-12-29T13:45:21.045Z,12.83
2023-12-29T13:47:52.001Z,12.96
2023-12-29T13:50:19.400Z,13.00
2023-12-29T13:52:46.904Z,12.91
2023-12-29T13:55:21.584Z,12.73
2023-12-29T13:57:48.695Z,12.79
2023-12-29T14:00:16.834Z,12.90
2023-12-29T14:02:47.867Z,12.80
2023-12-29T14:05:28.759Z,12.79
2023-12-29T14:08:05.164Z,12.68
2023-12-29T14:10:33.262Z,12.73
2023-12-29T14:13:08.831Z,12.66
2023-12-29T14:15:37.023Z,12.68
2023-12-29T14:18:17.769Z,12.66
2023-12-29T14:20:47.598Z,12.68
2023-12-29T14:23:14.995Z,12.55
2023-12-29T14:25:42.110Z,12.48
2023-12-29T14:28:17.145Z,12.50
2023-12-29T14:30:45.061Z,12.45
2023-12-29T14:33:12.502Z,12.45
2023-12-29T14:35:39.810Z,12.40
2023-12-29T14:38:09.570Z,12.28
2023-12-29T14:40:36.676Z,12.26
2023-12-29T14:43:04.086Z,12.23
2023-12-29T14:45:31.452Z,12.15
2023-12-29T14:48:00.836Z,12.11
2023-12-29T14:50:28.381Z,12.08
2023-12-29T14:52:55.472Z,12.07
2023-12-29T14:55:25.099Z,12.12
2023-12-29T14:57:52.262Z,12.13
2023-12-29T15:00:19.754Z,12.14
2023-12-29T15:02:46.800Z,12.10
2023-12-29T15:05:13.905Z,12.03
2023-12-29T15:07:41.042Z,12.00
2023-12-29T15:10:09.210Z,11.88
2023-12-29T15:12:38.942Z,11.91
2023-12-29T15:15:06.866Z,11.84
2023-12-29T15:17:33.943Z,11.82
2023-12-29T15:20:00.964Z,11.78
2023-12-29T15:22:27.910Z,11.78
2023-12-29T15:24:54.998Z,11.80
2023-12-29T15:27:22.023Z,11.76
2023-12-29T15:29:51.612Z,11.71
2023-12-29T15:32:18.628Z,11.72
2023-12-29T15:34:45.716Z,11.70
2023-12-29T15:37:13.209Z,11.74
2023-12-29T15:39:42.910Z,11.72
2023-12-29T15:42:09.975Z,11.73
2023-12-29T15:44:37.040Z,11.71
2023-12-29T15:47:06.737Z,11.72
2023-12-29T15:49:33.870Z,11.71
2023-12-29T15:52:01.302Z,11.70
2023-12-29T15:54:28.333Z,11.72
2023-12-29T15:56:55.374Z,11.73
2023-12-29T15:59:22.368Z,11.68
2023-12-29T16:01:49.418Z,11.66
2023-12-29T16:04:19.212Z,11.69
2023-12-29T16:06:46.304Z,11.63
2023-12-29T16:09:13.270Z,11.65
2023-12-29T16:11:40.290Z,11.64
2023-12-29T16:14:07.484Z,11.64
2023-12-29T16:16:34.701Z,11.61
2023-12-29T16:19:02.091Z,11.56
2023-12-29T16:24:03.910Z,11.54
2023-12-29T16:26:38.371Z,11.54
2023-12-29T16:29:09.841Z,11.53
2023-12-29T16:31:36.988Z,11.56
2023-12-29T16:34:04.566Z,11.54
2023-12-29T16:36:34.270Z,11.55
2023-12-29T16:39:01.256Z,11.55
2023-12-29T16:41:28.261Z,11.58
2023-12-29T16:43:55.275Z,11.57
2023-12-29T16:46:22.410Z,11.57
2023-12-29T16:48:49.552Z,11.55
2023-12-29T16:51:16.698Z,11.54
2023-12-29T16:53:46.297Z,11.57
2023-12-29T16:56:13.355Z,11.55
2023-12-29T16:58:40.435Z,11.56
2023-12-29T17:01:07.440Z,11.55
2023-12-29T17:03:34.529Z,11.54
2023-12-29T17:06:01.557Z,11.53
2023-12-29T17:08:28.604Z,11.49
2023-12-29T17:10:58.208Z,11.53
2023-12-29T17:13:25.274Z,11.47
2023-12-29T17:15:52.408Z,11.44
2023-12-29T17:18:19.483Z,11.51
2023-12-29T17:20:46.485Z,11.49
2023-12-29T17:23:13.526Z,11.48
2023-12-29T17:25:46.643Z,11.46
2023-12-29T17:28:20.381Z,11.48
2023-12-29T17:30:47.496Z,11.47
2023-12-29T17:33:14.556Z,11.46
2023-12-29T17:35:41.635Z,11.45
2023-12-29T17:38:08.637Z,11.42
2023-12-29T17:40:35.636Z,11.44
2023-12-29T17:43:02.910Z,11.41
2023-12-29T17:45:32.727Z,11.41
2023-12-29T17:47:59.807Z,11.37
2023-12-29T17:50:26.887Z,11.37
2023-12-29T17:52:53.940Z,11.38
2023-12-29T17:55:21.077Z,11.38
2023-12-29T17:57:48.201Z,11.36
2023-12-29T18:00:16.386Z,11.35
2023-12-29T18:02:46.018Z,11.32
2023-12-29T18:05:13.081Z,11.34
2023-12-29T18:07:40.205Z,11.32
2023-12-29T18:10:07.879Z,11.33
2023-12-29T18:12:34.935Z,11.30
2023-12-29T18:15:01.985Z,11.31
2023-12-29T18:17:29.089Z,11.34
2023-12-29T18:19:58.762Z,11.34
2023-12-29T18:22:25.940Z,11.35
2023-12-29T18:24:53.072Z,11.37
2023-12-29T18:27:20.128Z,11.32
2023-12-29T18:29:47.177Z,11.32
2023-12-29T18:32:20.023Z,11.33
2023-12-29T18:34:49.654Z,11.31
2023-12-29T18:37:19.602Z,11.32
2023-12-29T18:39:46.976Z,11.30
2023-12-29T18:42:14.034Z,11.30
2023-12-29T18:44:41.171Z,11.28
2023-12-29T18:47:08.231Z,11.23
2023-12-29T18:49:35.761Z,11.21
2023-12-29T18:52:02.971Z,11.21
2023-12-29T18:54:32.663Z,11.20
2023-12-29T18:57:00.000Z,11.17
2023-12-29T18:59:27.656Z,11.12
2023-12-29T19:01:56.286Z,11.05
2023-12-29T19:04:23.482Z,11.01
2023-12-29T19:06:50.552Z,11.04
2023-12-29T19:09:17.581Z,11.02
2023-12-29T19:11:47.386Z,11.01
2023-12-29T19:14:14.395Z,10.93
2023-12-29T19:16:41.508Z,10.98
2023-12-29T19:19:08.768Z,10.96
2023-12-29T19:21:40.325Z,10.88
2023-12-29T19:24:07.822Z,10.88
2023-12-29T19:26:34.858Z,10.87
2023-12-29T19:29:04.558Z,10.84
2023-12-29T19:31:31.634Z,10.76
2023-12-29T19:33:58.709Z,10.82
2023-12-29T19:36:25.742Z,10.82
2023-12-29T19:38:52.764Z,10.78
2023-12-29T19:41:21.124Z,10.78
2023-12-29T19:43:48.882Z,10.72
2023-12-29T19:46:20.464Z,10.70
2023-12-29T19:48:49.287Z,10.75
2023-12-29T19:51:19.148Z,10.72
2023-12-29T19:53:46.184Z,10.72
2023-12-29T19:56:13.301Z,10.75
2023-12-29T19:58:40.330Z,10.77
2023-12-29T20:01:07.757Z,10.82
2023-12-29T20:03:37.663Z,10.84
2023-12-29T20:06:05.116Z,10.85
2023-12-29T20:08:32.198Z,10.83
2023-12-29T20:11:01.197Z,10.83
2023-12-29T20:13:28.386Z,10.89
2023-12-29T20:15:55.488Z,10.88
2023-12-29T20:18:22.599Z,10.91
2023-12-29T20:20:52.279Z,10.95
2023-12-29T20:23:19.285Z,11.03
2023-12-29T20:25:46.242Z,11.04
2023-12-29T20:28:13.763Z,11.07
2023-12-29T20:30:40.851Z,11.09
2023-12-29T20:33:07.911Z,11.07
2023-12-29T20:35:34.931Z,11.03
2023-12-29T20:38:04.654Z,11.04
2023-12-29T20:40:31.759Z,11.00
2023-12-29T20:42:58.878Z,10.95
2023-12-29T20:45:25.903Z,10.92
2023-12-29T20:47:52.997Z,10.93
2023-12-29T20:50:20.087Z,10.84
2023-12-29T20:52:47.141Z,10.83
2023-12-29T20:55:16.770Z,10.83
2023-12-29T20:57:43.831Z,10.78
2023-12-29T21:00:11.758Z,10.71
2023-12-29T21:02:38.739Z,10.69
2023-12-29T21:05:06.712Z,10.66
2023-12-29T21:07:33.810Z,10.61
2023-12-29T21:10:00.910Z,10.62
2023-12-29T21:12:30.511Z,10.63
2023-12-29T21:14:57.496Z,10.58
2023-12-29T21:17:24.564Z,10.61
2023-12-29T21:19:53.764Z,10.64
2023-12-29T21:22:21.032Z,10.62
2023-12-29T21:24:48.133Z,10.66
2023-12-29T21:27:15.206Z,10.64
2023-12-29T21:29:44.772Z,10.65
2023-12-29T21:32:12.010Z,10.72
2023-12-29T21:34:39.453Z,10.70
2023-12-29T21:37:06.608Z,10.70
2023-12-29T21:39:33.636Z,10.75
2023-12-29T21:42:00.810Z,10.75
2023-12-29T21:44:27.877Z,10.74
2023-12-29T21:46:57.522Z,10.75
2023-12-29T21:49:24.578Z,10.73
2023-12-29T21:51:51.915Z,10.76
2023-12-29T21:54:18.999Z,10.67
2023-12-29T21:56:46.110Z,10.69
2023-12-29T21:59:13.239Z,10.70
2023-12-29T22:01:40.648Z,10.67
2023-12-29T22:04:10.945Z,10.64
2023-12-29T22:06:40.364Z,10.64
2023-12-29T22:09:08.041Z,10.61
2023-12-29T22:11:35.686Z,10.60
2023-12-29T22:14:04.020Z,10.53
2023-12-29T22:16:31.152Z,10.61
2023-12-29T22:18:58.798Z,10.58
2023-12-29T22:21:28.483Z,10.56
2023-12-29T22:23:55.456Z,10.58
2023-12-29T22:26:22.480Z,10.50
2023-12-29T22:28:50.904Z,10.53
2023-12-29T22:31:19.158Z,10.54
2023-12-29T22:33:46.707Z,10.48
2023-12-29T22:36:15.864Z,10.45
2023-12-29T22:38:45.997Z,10.51
2023-12-29T22:41:15.617Z,10.57
2023-12-29T22:43:42.627Z,10.55
2023-12-29T22:46:09.995Z,10.56
2023-12-29T22:48:37.063Z,10.55
2023-12-29T22:51:04.599Z,10.59
2023-12-29T22:53:31.911Z,10.59
2023-12-29T22:56:02.056Z,10.55
2023-12-29T22:58:29.670Z,10.52
2023-12-29T23:00:56.849Z,10.48
2023-12-29T23:03:23.926Z,10.45
2023-12-29T23:05:51.173Z,10.44
2023-12-29T23:08:18.622Z,10.44
2023-12-29T23:10:45.815Z,10.43
2023-12-29T23:13:15.574Z,10.41
2023-12-29T23:15:43.116Z,10.38
2023-12-29T23:18:10.199Z,10.37
2023-12-29T23:20:37.439Z,10.41
2023-12-29T23:23:04.837Z,10.43
2023-12-29T23:25:32.097Z,10.46
2023-12-29T23:27:59.199Z,10.48
2023-12-29T23:30:28.814Z,10.45
2023-12-29T23:32:55.901Z,10.45
2023-12-29T23:35:24.765Z,10.49
2023-12-29T23:37:52.850Z,10.49
2023-12-29T23:40:20.211Z,10.51
2023-12-29T23:42:47.383Z,10.52
2023-12-29T23:45:14.467Z,10.52
2023-12-29T23:47:44.152Z,10.54
2023-12-29T23:50:11.436Z,10.55
2023-12-29T23:52:38.421Z,10.53
2023-12-29T23:55:06.856Z,10.57
2023-12-29T23:57:33.899Z,10.58
